Sant Hilari Sacalm





Hora UTC 22:50
Temperatura 10.6 ºC
Sòl 15 cm 7.0 ºC
Humitat 84.4 %
Pressió 1025.0 hPa
Pluja 0.0 mm
Velocitat vent 6.2 km/h
Direcció vent WNW
Radiació solar 0.1 W/m²

Dades diàries 2020-10-29



Hora UTC (hivern +1h; estiu +2h)
Temperatura (ºC) Humitat (%) Pressió (hPa) Velocitat vent (km/h) Precipitació (mm) Radiació solar (W/m²)
Hora UTC Aire Sòl 15 cm Humitat Pressió Vel. Dir. Vel. Max Dir. Intent. màx 5 min. Rad. Sol.
00:05 8.4 6.2 95.3 1022.9 0.8 SW 0.8 WSW 0.0 0.1
00:10 8.3 6.1 95.6 1023.0 0.9 WSW 6.1 WSW 0.0 0.1
00:15 8.2 6.1 95.8 1023.1 0.2 WSW 3.4 WSW 0.0 0.1
00:20 8.2 6.1 96.1 1023.1 3.1 WSW 8.8 WSW 0.0 0.1
00:25 8.2 6.1 96.3 1023.1 2.0 WSW 8.8 W 0.0 0.1
00:30 8.0 6.0 95.8 1023.0 0.0 SW 3.4 SW 0.0 0.1
00:35 8.1 5.9 96.4 1022.9 1.5 SSW 6.1 SSW 0.0 0.1
00:40 8.2 5.8 96.5 1022.9 1.1 SSW 6.1 SSW 0.0 0.1
00:45 8.3 5.7 96.5 1022.9 0.2 S 3.4 S 0.0 0.1
00:50 8.7 5.6 97.2 1023.0 0.5 S 3.4 SSE 0.0 0.1
00:55 9.0 5.6 96.7 1023.0 0.0 NNE 0.0 SSE 0.0 0.1
01:00 8.8 5.6 95.3 1023.1 0.0 NNE 0.0 S 0.0 0.1
01:05 8.5 5.7 94.8 1023.2 0.0 NNE 0.0 S 0.0 0.1
01:10 8.2 5.7 94.5 1023.2 0.0 NNE 0.0 WSW 0.0 0.1
01:15 8.0 5.7 94.5 1023.2 0.0 NNE 0.0 SW 0.0 0.1
01:20 7.8 5.7 94.6 1023.2 0.0 NNE 0.0 SSW 0.0 0.1
01:25 7.7 5.6 94.9 1023.2 0.0 NNE 0.0 SSW 0.0 0.1
01:30 7.6 5.7 95.2 1023.2 0.0 NNE 0.0 SSW 0.0 0.1
01:35 7.7 5.7 95.7 1023.2 0.0 NNE 0.0 SSW 0.0 0.1
01:40 7.6 5.6 95.5 1023.1 0.0 NNE 0.0 SSW 0.0 0.1
01:45 7.8 5.5 96.3 1023.1 0.0 NNE 0.0 SSW 0.0 0.1
01:50 7.7 5.6 96.2 1023.2 0.0 NNE 0.0 WSW 0.0 0.1
01:55 7.7 5.6 96.4 1023.1 0.4 SSW 6.1 SSW 0.0 0.1
02:00 7.7 5.8 96.4 1023.0 0.0 NNE 0.0 SW 0.0 0.1
02:05 7.7 5.8 96.4 1022.8 1.6 WSW 6.1 SW 0.0 0.1
02:10 7.8 5.7 97.0 1022.7 0.5 WSW 3.4 WSW 0.0 0.1
02:15 7.7 5.6 96.8 1022.8 0.0 NNE 0.0 WSW 0.0 0.1
02:20 7.8 5.5 97.3 1023.0 0.0 NNE 0.0 WSW 0.0 0.1
02:25 7.8 5.6 97.2 1022.9 0.0 NNE 0.0 WSW 0.0 0.1
02:30 7.6 5.7 96.7 1022.7 0.0 NNE 0.0 SSW 0.0 0.1
02:35 7.5 5.6 96.5 1022.7 0.0 NNE 0.0 S 0.0 0.1
02:40 7.5 5.6 96.6 1022.7 0.0 NNE 0.0 S 0.0 0.1
02:45 7.6 5.6 96.8 1022.7 0.7 W 6.1 W 0.0 0.1
02:50 7.5 5.6 96.8 1022.8 2.2 W 8.8 W 0.0 0.1
02:55 7.5 5.6 96.9 1022.9 1.8 W 8.8 W 0.0 0.1
03:00 7.5 5.6 96.9 1022.9 1.0 SSW 6.1 SSW 0.0 0.1
03:05 7.5 5.6 97.1 1023.0 0.4 WSW 6.1 W 0.0 0.1
03:10 7.6 5.6 97.2 1023.0 2.6 WSW 8.8 WSW 0.0 0.1
03:15 7.8 5.7 97.6 1023.0 3.5 W 6.1 WSW 0.0 0.1
03:20 7.8 5.8 97.3 1022.8 0.6 SW 3.4 W 0.0 0.1
03:25 7.7 5.7 97.4 1022.8 0.9 WSW 6.1 WSW 0.0 0.1
03:30 7.7 5.7 97.4 1022.9 0.7 W 6.1 W 0.0 0.1
03:35 7.7 5.5 97.4 1022.9 1.3 W 6.1 W 0.0 0.1
03:40 7.6 5.5 97.4 1022.9 2.9 W 8.8 WSW 0.0 0.1
03:45 7.4 5.5 97.2 1022.9 0.0 W 3.4 W 0.0 0.1
03:50 7.3 5.5 97.2 1022.9 0.0 NNE 0.0 SW 0.0 0.1
03:55 7.4 5.6 97.4 1023.0 0.0 NNE 0.0 SW 0.0 0.1
04:00 7.4 5.6 97.5 1023.1 2.5 W 8.8 W 0.0 0.1
04:05 7.4 5.7 97.6 1023.3 4.0 WNW 8.8 WNW 0.0 0.1
04:10 7.8 5.8 98.3 1023.3 4.8 WNW 11.5 WNW 0.0 0.1
04:15 8.3 6.5 98.3 1023.4 6.8 WNW 14.2 WNW 0.0 0.1
04:20 8.4 6.7 97.5 1023.4 5.8 WNW 11.5 NW 0.0 0.1
04:25 8.5 6.7 96.9 1023.4 5.8 WNW 11.5 W 0.0 0.1
04:30 8.4 6.6 96.1 1023.4 5.6 W 8.8 WNW 0.0 0.1
04:35 8.3 6.4 95.8 1023.4 5.7 WNW 8.8 WNW 0.0 0.1
04:40 8.5 6.4 96.3 1023.4 5.0 W 8.8 NW 0.0 0.1
04:45 8.6 6.3 95.9 1023.6 4.5 W 11.5 WNW 0.0 0.1
04:50 8.7 6.5 95.9 1023.7 5.1 WNW 11.5 NW 0.0 0.1
04:55 8.4 6.5 94.4 1023.6 5.4 W 8.8 WNW 0.0 0.1
05:00 8.1 6.5 94.1 1023.6 3.4 W 8.8 W 0.0 0.1
05:05 7.9 6.6 95.0 1023.7 3.9 W 6.1 W 0.0 0.1
05:10 8.0 6.8 96.0 1023.7 1.5 WSW 6.1 W 0.0 0.1
05:15 8.0 7.0 96.1 1023.8 3.4 WSW 8.8 WSW 0.0 0.1
05:20 7.9 7.1 95.9 1023.8 3.5 WSW 8.8 W 0.0 0.1
05:25 8.0 7.1 96.3 1023.7 4.4 WSW 8.8 W 0.0 0.1
05:30 8.2 7.1 96.8 1023.6 2.5 W 6.1 W 0.0 0.1
05:35 8.3 7.2 96.8 1023.7 3.0 WNW 8.8 NW 0.0 0.1
05:40 8.9 7.6 97.3 1023.8 5.0 NW 11.5 NW 0.0 0.1
05:45 9.5 8.1 95.2 1023.8 6.1 NW 11.5 NNW 0.0 0.1
05:50 9.7 8.3 93.5 1023.8 4.3 NW 11.5 WNW 0.0 0.1
05:55 9.7 8.4 92.9 1023.7 2.3 W 8.8 WNW 0.0 0.1
06:00 9.5 8.2 92.4 1023.6 1.9 W 6.1 W 0.0 0.1
06:05 9.4 8.0 92.5 1023.6 0.6 WNW 3.4 WNW 0.0 0.3
06:10 9.1 7.7 92.7 1023.6 0.5 W 6.1 W 0.0 1.3
06:15 9.0 7.6 93.8 1023.7 0.0 NNE 0.0 W 0.0 1.0
06:20 8.9 7.5 94.2 1023.8 1.4 W 6.1 W 0.0 1.5
06:25 9.0 7.5 94.7 1023.8 2.3 WSW 6.1 W 0.0 2.4
06:30 8.9 7.5 94.6 1023.7 1.1 SW 6.1 SSW 0.0 4.0
06:35 8.9 7.4 94.8 1023.8 3.7 WSW 6.1 SW 0.0 6.6
06:40 8.9 7.3 95.4 1023.9 2.5 W 6.1 W 0.0 11.2
06:45 9.0 7.3 95.8 1023.9 2.2 W 6.1 WSW 0.0 15.7
06:50 9.0 7.3 95.8 1023.9 2.7 W 8.8 W 0.0 21.1
06:55 9.0 7.3 95.7 1024.0 4.2 W 8.8 W 0.0 26.2
07:00 8.9 7.4 95.5 1024.2 2.0 WNW 6.1 W 0.0 36.7
07:05 9.0 7.3 96.2 1024.3 0.5 WNW 6.1 NW 0.0 40.6
07:10 9.4 7.6 96.7 1024.3 4.3 NW 11.5 WNW 0.0 37.8
07:15 9.9 8.2 95.9 1024.4 6.1 WNW 11.5 WNW 0.0 44.5
07:20 10.0 8.5 94.6 1024.5 4.8 W 14.2 W 0.0 57.0
07:25 9.7 8.4 93.6 1024.5 3.6 W 8.8 WNW 0.0 69.2
07:30 9.8 8.6 94.6 1024.6 5.1 WNW 11.5 WNW 0.0 122.4
07:35 10.3 9.4 94.5 1024.6 6.3 WNW 11.5 WNW 0.0 189.9
07:40 10.9 10.1 92.9 1024.6 5.1 WNW 11.5 WNW 0.0 177.5
07:45 11.2 10.5 91.2 1024.6 3.7 W 11.5 WNW 0.0 168.1
07:50 11.5 11.1 90.3 1024.5 3.7 W 8.8 WNW 0.0 163.2
07:55 11.7 11.2 88.9 1024.6 3.3 W 8.8 WSW 0.0 143.5
08:00 11.8 11.5 88.4 1024.5 2.8 SW 6.1 WNW 0.0 168.3
08:05 12.0 11.7 88.0 1024.5 2.3 W 6.1 WNW 0.0 191.6
08:10 12.3 12.1 87.1 1024.5 3.2 W 6.1 W 0.0 211.8
08:15 12.7 12.3 85.8 1024.6 2.8 WNW 6.1 W 0.0 237.7
08:20 13.2 12.9 83.8 1024.6 3.2 WNW 8.8 SW 0.0 291.8
08:25 13.5 13.3 82.9 1024.6 2.2 WNW 6.1 NW 0.0 268.8
08:30 13.8 13.7 81.7 1024.5 1.5 W 8.8 W 0.0 328.5
08:35 13.9 13.9 79.9 1024.6 3.2 WNW 8.8 WNW 0.0 298.1
08:40 14.1 14.3 80.1 1024.7 0.8 NNW 6.1 WNW 0.0 334.2
08:45 14.5 15.4 77.3 1024.8 0.7 WNW 6.1 WNW 0.0 385.3
08:50 14.7 15.6 74.9 1024.8 4.2 ENE 8.8 ENE 0.0 306.3
08:55 13.7 14.9 79.2 1024.8 5.1 E 8.8 ENE 0.0 157.8
09:00 13.4 14.7 80.9 1025.0 1.7 E 6.1 E 0.0 147.5
09:05 13.2 14.4 81.6 1025.1 4.7 ENE 8.8 ENE 0.0 182.9
09:10 13.0 14.2 83.3 1025.2 3.9 NE 8.8 ENE 0.0 175.8
09:15 13.1 14.6 84.0 1025.3 2.5 NE 8.8 NNE 0.0 285.4
09:20 13.4 15.0 82.5 1025.5 1.5 NE 6.1 NNE 0.0 142.2
09:25 13.1 14.5 82.6 1025.5 0.0 NNE 0.0 NE 0.0 99.1
09:30 12.9 14.1 83.5 1025.5 2.2 ENE 6.1 E 0.0 88.8
09:35 12.8 13.8 83.9 1025.6 2.3 E 6.1 ENE 0.0 83.0
09:40 12.7 13.8 84.8 1025.5 3.1 N 6.1 ENE 0.0 119.7
09:45 12.7 13.8 85.9 1025.5 2.9 N 6.1 NNW 0.0 116.6
09:50 12.8 13.9 85.3 1025.4 1.9 NNW 6.1 NNW 0.0 155.9
09:55 13.1 14.6 84.3 1025.3 0.0 NNE 0.0 WNW 0.0 225.9
10:00 13.5 15.6 81.0 1025.3 1.3 SW 6.1 SSW 0.0 230.6
10:05 13.7 16.0 80.4 1025.3 0.8 WSW 3.4 SW 0.0 285.2
10:10 14.2 17.4 79.2 1025.3 2.8 E 11.5 E 0.0 462.2
10:15 14.3 18.1 78.3 1025.3 2.1 E 8.8 E 0.0 523.5
10:20 14.5 19.8 78.6 1025.3 3.9 SE 8.8 SE 0.0 686.6
10:25 15.0 21.6 75.8 1025.3 6.0 ESE 11.5 E 0.0 756.6
10:30 15.2 22.4 76.2 1025.3 2.7 E 8.8 SE 0.0 691.1
10:35 15.5 22.8 77.0 1025.3 3.3 NNE 8.8 NNE 0.0 598.0
10:40 16.1 23.8 74.3 1025.2 3.0 NE 8.8 N 0.0 695.7
10:45 15.8 23.4 74.5 1025.1 5.3 ENE 8.8 SE 0.0 674.5
10:50 16.1 23.9 71.9 1025.2 3.4 ESE 8.8 N 0.0 727.7
10:55 16.1 24.7 70.7 1025.2 4.3 SSE 11.5 S 0.0 619.2
11:00 16.1 23.9 72.3 1025.1 3.9 ENE 11.5 E 0.0 663.7
11:05 16.0 24.8 72.0 1025.2 3.7 ESE 8.8 ESE 0.0 693.9
11:10 16.4 24.9 70.2 1025.1 3.4 ENE 11.5 E 0.0 674.7
11:15 16.6 24.8 70.4 1025.0 4.6 NNE 8.8 WNW 0.0 709.6
11:20 16.4 24.5 69.9 1025.0 3.4 SE 8.8 SE 0.0 605.8
11:25 16.5 23.6 67.4 1025.0 3.6 ESE 8.8 ESE 0.0 467.5
11:30 16.4 23.3 69.9 1024.9 1.2 S 8.8 SSW 0.0 454.1
11:35 16.5 23.0 66.8 1024.8 3.1 SE 8.8 NE 0.0 371.2
11:40 16.3 21.7 65.6 1024.8 5.0 SW 11.5 SSE 0.0 358.7
11:45 16.3 21.0 64.4 1024.7 5.5 W 11.5 WNW 0.0 372.9
11:50 16.4 21.1 60.3 1024.7 2.2 SW 8.8 WNW 0.0 373.8
11:55 16.6 21.1 63.6 1024.7 6.2 WSW 14.2 WSW 0.0 482.0
12:00 16.9 21.4 64.6 1024.7 5.5 WNW 14.2 W 0.0 553.8
12:05 16.9 21.5 63.9 1024.5 6.1 WNW 16.9 W 0.0 522.9
12:10 16.7 21.3 63.5 1024.6 8.2 WNW 16.9 WNW 0.0 507.0
12:15 16.4 21.2 65.1 1024.5 4.8 WNW 16.9 WNW 0.0 569.0
12:20 16.8 21.4 63.8 1024.5 7.5 WNW 16.9 NW 0.0 608.5
12:25 16.7 21.5 64.4 1024.5 7.2 WNW 14.2 WNW 0.0 573.7
12:30 16.8 21.5 63.2 1024.4 5.7 WNW 16.9 WNW 0.0 451.7
12:35 16.2 20.2 64.4 1024.3 10.2 WNW 22.3 WNW 0.0 455.8
12:40 16.0 19.8 63.8 1024.3 11.4 WNW 19.6 WNW 0.0 515.6
12:45 16.3 19.9 63.3 1024.3 8.1 W 16.9 W 0.0 497.7
12:50 16.7 20.3 63.1 1024.2 9.4 W 19.6 W 0.0 486.5
12:55 16.6 20.1 62.8 1024.2 9.6 WNW 16.9 WSW 0.0 497.7
13:00 16.3 19.6 63.7 1024.1 8.0 WNW 16.9 NW 0.0 412.4
13:05 16.2 19.4 65.9 1024.2 11.4 WNW 19.6 WNW 0.0 472.0
13:10 15.9 19.2 68.2 1024.2 8.9 NNW 19.6 WNW 0.0 512.9
13:15 15.9 19.3 67.3 1024.2 10.3 WNW 19.6 W 0.0 520.0
13:20 15.9 19.2 67.0 1024.2 11.3 WNW 19.6 WNW 0.0 492.4
13:25 15.8 18.8 67.0 1024.2 9.0 NW 19.6 NW 0.0 380.8
13:30 15.8 18.9 67.0 1024.1 10.9 W 19.6 WSW 0.0 458.6
13:35 15.9 18.6 66.5 1024.1 11.1 WNW 19.6 W 0.0 444.8
13:40 15.5 18.2 67.1 1024.1 11.4 WNW 19.6 NW 0.0 443.9
13:45 15.5 18.1 68.0 1024.1 10.7 NW 19.6 WNW 0.0 430.5
13:50 15.6 18.1 67.5 1024.1 9.8 WNW 16.9 WNW 0.0 428.3
13:55 15.7 17.8 66.2 1024.1 10.0 WNW 19.6 NW 0.0 393.3
14:00 15.5 17.3 66.8 1024.1 8.3 WNW 16.9 WNW 0.0 373.1
14:05 15.5 17.0 66.7 1024.1 8.3 WNW 16.9 W 0.0 360.6
14:10 15.5 16.6 66.7 1024.2 9.0 WNW 14.2 W 0.0 361.6
14:15 15.5 16.4 67.1 1024.2 6.0 WNW 16.9 WNW 0.0 340.6
14:20 15.6 16.5 66.3 1024.3 6.2 W 16.9 WSW 0.0 340.6
14:25 15.8 16.6 65.6 1024.3 6.8 NW 19.6 NNW 0.0 333.9
14:30 15.5 16.4 66.7 1024.3 6.7 WNW 14.2 WNW 0.0 320.8
14:35 15.4 16.3 67.1 1024.2 8.3 WNW 16.9 W 0.0 301.8
14:40 15.4 16.1 66.5 1024.2 6.6 W 14.2 W 0.0 280.8
14:45 15.5 16.0 66.4 1024.3 8.3 W 14.2 W 0.0 283.4
14:50 15.5 16.0 66.0 1024.3 10.0 W 16.9 WNW 0.0 278.7
14:55 15.3 15.6 66.9 1024.2 9.3 WNW 16.9 WNW 0.0 261.2
15:00 15.3 15.4 66.8 1024.2 7.1 WNW 14.2 WNW 0.0 246.8
15:05 15.2 15.1 67.5 1024.3 5.6 WNW 11.5 NW 0.0 233.4
15:10 15.5 14.9 66.0 1024.3 7.6 WNW 14.2 W 0.0 216.1
15:15 15.3 14.5 66.9 1024.3 8.6 WNW 14.2 WNW 0.0 201.6
15:20 15.2 14.3 66.8 1024.3 9.5 WNW 16.9 WNW 0.0 192.4
15:25 15.0 14.0 67.4 1024.3 9.5 WNW 16.9 W 0.0 181.0
15:30 15.0 13.8 67.8 1024.3 6.5 WNW 14.2 WNW 0.0 161.2
15:35 14.8 13.6 67.9 1024.3 4.2 WSW 8.8 NW 0.0 133.7
15:40 14.9 13.4 68.1 1024.3 2.5 W 8.8 WNW 0.0 110.7
15:45 14.9 13.2 68.1 1024.4 3.4 W 8.8 W 0.0 53.3
15:50 14.7 12.9 69.3 1024.4 3.4 WNW 8.8 NNE 0.0 56.8
15:55 14.5 12.7 69.4 1024.4 5.8 NW 11.5 WNW 0.0 40.3
16:00 14.4 12.6 69.9 1024.3 4.9 W 11.5 W 0.0 36.5
16:05 14.4 12.4 69.5 1024.4 7.4 W 14.2 WNW 0.0 34.3
16:10 14.4 12.3 69.8 1024.4 4.9 W 14.2 W 0.0 31.4
16:15 14.3 12.1 70.1 1024.3 7.0 W 14.2 WNW 0.0 27.6
16:20 14.1 11.9 71.0 1024.3 7.0 W 14.2 WNW 0.0 24.3
16:25 14.0 11.8 71.7 1024.3 5.6 W 11.5 W 0.0 20.8
16:30 13.8 11.6 72.5 1024.3 7.8 W 14.2 W 0.0 18.6
16:35 13.7 11.4 72.8 1024.3 6.6 W 14.2 W 0.0 15.5
16:40 13.6 11.1 73.6 1024.3 2.3 W 8.8 WSW 0.0 11.7
16:45 13.4 10.9 74.0 1024.3 0.1 W 3.4 W 0.0 7.9
16:50 13.3 10.3 74.7 1024.4 0.0 NNE 0.0 W 0.0 5.1
16:55 13.3 10.0 74.4 1024.4 0.8 NW 6.1 NW 0.0 4.8
17:00 13.2 9.8 74.6 1024.4 0.6 NNE 6.1 NNE 0.0 4.9
17:05 13.0 9.5 75.2 1024.5 3.2 NNW 8.8 NW 0.0 2.3
17:10 13.0 9.5 75.4 1024.6 0.3 NW 6.1 NW 0.0 0.4
17:15 12.7 9.2 76.5 1024.6 0.0 S 3.4 SSW 0.0 0.1
17:20 12.6 9.0 77.1 1024.6 0.0 NNE 0.0 SSE 0.0 0.1
17:25 12.5 8.7 78.2 1024.7 0.1 SSE 3.4 SSE 0.0 0.1
17:30 12.6 8.6 77.9 1024.7 0.0 SSE 3.4 SSE 0.0 0.1
17:35 12.4 8.3 78.4 1024.7 0.0 NNE 0.0 SSE 0.0 0.1
17:40 12.2 8.3 79.8 1024.7 1.7 SW 6.1 SW 0.0 0.1
17:45 12.1 8.3 81.0 1024.7 3.8 SW 6.1 SSW 0.0 0.1
17:50 11.7 8.2 82.8 1024.8 4.2 SW 6.1 SW 0.0 0.0
17:55 11.4 8.1 84.2 1024.8 4.1 SW 6.1 SW 0.0 0.1
18:00 11.3 8.0 85.0 1024.9 2.8 SW 6.1 SW 0.0 0.1
18:05 11.3 8.0 84.7 1024.9 3.0 SW 6.1 SW 0.0 0.1
18:10 11.3 7.9 84.6 1024.9 3.7 SW 6.1 WSW 0.0 0.1
18:15 11.0 7.8 85.5 1024.9 3.5 SW 6.1 WSW 0.0 0.1
18:20 10.9 7.7 86.3 1024.9 2.4 SW 6.1 SW 0.0 0.1
18:25 10.8 7.6 86.6 1025.0 1.4 SW 3.4 SW 0.0 0.1
18:30 10.8 7.4 86.5 1025.0 0.0 NNE 0.0 SW 0.0 0.1
18:35 10.9 7.2 86.2 1025.0 0.0 NNE 0.0 SW 0.0 0.1
18:40 11.0 7.0 85.2 1025.0 0.8 NNW 3.4 WNW 0.0 0.1
18:45 11.0 6.9 84.8 1025.0 2.0 NW 6.1 NNW 0.0 0.1
18:50 10.9 7.0 84.9 1025.1 1.3 W 6.1 W 0.0 0.1
18:55 10.5 7.1 86.4 1025.0 2.8 WSW 6.1 WSW 0.0 0.1
19:00 10.3 7.0 87.5 1024.9 1.4 WSW 3.4 WSW 0.0 0.1
19:05 10.1 7.0 88.5 1024.9 2.1 WNW 6.1 W 0.0 0.1
19:10 10.0 6.8 89.0 1024.9 0.1 NW 3.4 WNW 0.0 0.1
19:15 10.1 6.7 89.1 1024.9 0.0 NNE 0.0 NW 0.0 0.1
19:20 10.1 6.7 88.9 1025.0 0.3 WSW 6.1 WSW 0.0 0.1
19:25 10.0 6.9 89.1 1025.0 1.1 WSW 6.1 WSW 0.0 0.1
19:30 9.9 7.0 89.5 1025.0 2.3 WSW 6.1 WSW 0.0 0.1
19:35 9.9 7.1 90.0 1025.0 4.8 WSW 8.8 W 0.0 0.1
19:40 9.8 7.1 90.3 1024.9 4.7 WSW 8.8 W 0.0 0.1
19:45 9.9 7.0 90.6 1024.9 5.7 W 8.8 W 0.0 0.1
19:50 9.8 7.0 90.4 1024.9 4.9 W 6.1 WSW 0.0 0.1
19:55 9.8 7.0 90.5 1024.9 4.5 W 6.1 W 0.0 0.1
20:00 9.9 6.9 90.1 1025.0 4.9 WNW 6.1 W 0.0 0.1
20:05 9.9 6.7 90.0 1025.0 4.1 W 6.1 WNW 0.0 0.1
20:10 9.9 6.8 89.6 1025.0 4.4 WSW 6.1 WSW 0.0 0.1
20:15 9.6 6.8 90.4 1025.0 4.7 WSW 8.8 WSW 0.0 0.1
20:20 9.6 6.9 90.9 1025.0 6.5 WSW 8.8 WSW 0.0 0.1
20:25 9.5 6.9 90.8 1025.0 5.6 WSW 8.8 WSW 0.0 0.1
20:30 9.5 6.9 91.2 1025.0 5.4 WSW 8.8 WSW 0.0 0.1
20:35 9.6 7.0 91.2 1025.0 6.1 W 8.8 W 0.0 0.1
20:40 9.6 7.0 90.9 1025.0 7.4 W 11.5 WSW 0.0 0.1
20:45 9.5 7.0 90.6 1025.0 7.8 W 11.5 WSW 0.0 0.1
20:50 9.6 7.1 90.7 1025.1 7.5 WSW 11.5 W 0.0 0.1
20:55 9.6 7.0 90.2 1025.1 6.3 W 8.8 WSW 0.0 0.1
21:00 9.6 7.0 90.3 1025.1 5.4 WSW 8.8 W 0.0 0.1
21:05 9.5 6.9 90.6 1025.2 3.3 WNW 6.1 W 0.0 0.1
21:10 9.5 6.6 91.8 1025.2 2.7 NW 6.1 NW 0.0 0.1
21:15 9.7 6.6 91.3 1025.2 3.5 WNW 6.1 WNW 0.0 0.1
21:20 9.7 6.6 90.3 1025.2 1.1 WNW 6.1 NW 0.0 0.1
21:25 9.4 6.6 90.7 1025.2 4.4 W 8.8 W 0.0 0.1
21:30 9.2 6.7 91.1 1025.2 7.3 WSW 11.5 WSW 0.0 0.1
21:35 9.1 6.7 91.0 1025.1 6.9 WSW 11.5 WSW 0.0 0.1
21:40 9.0 6.7 91.8 1025.1 9.2 W 11.5 WSW 0.0 0.1
21:45 9.0 6.8 91.9 1025.0 10.0 WSW 14.2 W 0.0 0.1
21:50 8.9 6.6 91.6 1025.1 7.4 WSW 11.5 WSW 0.0 0.1
21:55 9.1 6.7 92.2 1025.0 8.5 WSW 11.5 WSW 0.0 0.1
22:00 9.5 6.9 90.0 1025.1 7.2 WSW 8.8 WSW 0.0 0.1
22:05 9.9 6.9 87.7 1025.1 5.3 W 8.8 WSW 0.0 0.1
22:10 9.9 6.8 86.9 1025.1 3.5 WSW 6.1 WSW 0.0 0.1
22:15 9.8 6.7 87.2 1025.1 2.2 W 6.1 WSW 0.0 0.1
22:20 9.8 6.6 87.4 1025.1 0.3 W 3.4 W 0.0 0.1
22:25 9.7 6.5 87.7 1025.1 0.0 NNE 0.0 WSW 0.0 0.1
22:30 9.6 6.4 88.6 1025.1 2.0 WNW 6.1 WNW 0.0 0.1
22:35 9.9 6.5 88.0 1025.1 4.2 WNW 8.8 W 0.0 0.1
22:40 10.5 6.8 84.9 1025.1 6.5 WNW 14.2 WSW 0.0 0.1
22:45 10.8 7.0 83.7 1025.0 7.0 W 14.2 W 0.0 0.1
22:50 10.6 7.0 84.4 1025.0 6.2 WNW 11.5 W 0.0 0.1
Màxima 17.0 24.9 98.3 1025.6 11.4 WNW 22.3 WNW 0.0 756.6
Mínima 7.3 5.5 60.3 1022.7
Total 0.0